sensor_id;sensor_type;location;lat;lon;timestamp;temperature;humidity
6954;DHT22;3516;47.980;8.808;2023-02-27T05:00:12;-3.70;99.90
6954;DHT22;3516;47.980;8.808;2023-02-27T05:02:42;-3.60;99.90
6954;DHT22;3516;47.980;8.808;2023-02-27T05:05:14;-3.60;99.90
6954;DHT22;3516;47.980;8.808;2023-02-27T05:07:45;-3.60;99.90
6954;DHT22;3516;47.980;8.808;2023-02-27T05:10:19;-3.50;99.90
6954;DHT22;3516;47.980;8.808;2023-02-27T05:12:50;-3.40;99.90
6954;DHT22;3516;47.980;8.808;2023-02-27T05:15:22;-3.40;99.90
6954;DHT22;3516;47.980;8.808;2023-02-27T05:17:58;-3.40;99.90
6954;DHT22;3516;47.980;8.808;2023-02-27T05:20:32;-3.40;99.90
6954;DHT22;3516;47.980;8.808;2023-02-27T11:38:18;-1.90;99.90
6954;DHT22;3516;47.980;8.808;2023-02-27T11:40:51;-1.90;99.90
6954;DHT22;3516;47.980;8.808;2023-02-27T11:43:20;-1.90;99.90
6954;DHT22;3516;47.980;8.808;2023-02-27T11:45:52;-1.80;99.90
6954;DHT22;3516;47.980;8.808;2023-02-27T11:48:21;-1.80;99.90
6954;DHT22;3516;47.980;8.808;2023-02-27T11:56:36;-1.80;99.90
6954;DHT22;3516;47.980;8.808;2023-02-27T11:59:07;-1.80;99.90
6954;DHT22;3516;47.980;8.808;2023-02-27T12:01:42;-1.80;99.90
6954;DHT22;3516;47.980;8.808;2023-02-27T12:04:13;-1.80;99.90
6954;DHT22;3516;47.980;8.808;2023-02-27T12:06:48;-1.80;99.90
6954;DHT22;3516;47.980;8.808;2023-02-27T12:09:37;-1.80;99.90
6954;DHT22;3516;47.980;8.808;2023-02-27T12:12:08;-1.80;99.90
6954;DHT22;3516;47.980;8.808;2023-02-27T12:14:43;-1.80;99.90
6954;DHT22;3516;47.980;8.808;2023-02-27T12:17:17;-1.80;99.90
6954;DHT22;3516;47.980;8.808;2023-02-27T12:19:55;-1.80;99.90
6954;DHT22;3516;47.980;8.808;2023-02-27T12:22:28;-1.70;99.90
6954;DHT22;3516;47.980;8.808;2023-02-27T12:25:02;-1.70;99.90
6954;DHT22;3516;47.980;8.808;2023-02-27T12:27:40;-1.60;99.90
6954;DHT22;3516;47.980;8.808;2023-02-27T12:30:13;-1.60;99.90
6954;DHT22;3516;47.980;8.808;2023-02-27T12:32:43;-1.60;99.90
6954;DHT22;3516;47.980;8.808;2023-02-27T12:35:15;-1.60;99.90
6954;DHT22;3516;47.980;8.808;2023-02-27T12:37:42;-1.50;99.90
6954;DHT22;3516;47.980;8.808;2023-02-27T12:40:13;-1.50;99.90
6954;DHT22;3516;47.980;8.808;2023-02-27T12:42:57;-1.50;99.90
6954;DHT22;3516;47.980;8.808;2023-02-27T12:45:54;-1.50;99.90
6954;DHT22;3516;47.980;8.808;2023-02-27T12:48:39;-1.50;99.90
6954;DHT22;3516;47.980;8.808;2023-02-27T12:51:17;-1.50;99.90
6954;DHT22;3516;47.980;8.808;2023-02-27T12:53:59;-1.50;99.90
6954;DHT22;3516;47.980;8.808;2023-02-27T12:56:40;-1.50;99.90
6954;DHT22;3516;47.980;8.808;2023-02-27T12:59:22;-1.50;99.90
6954;DHT22;3516;47.980;8.808;2023-02-27T13:01:55;-1.40;99.90
6954;DHT22;3516;47.980;8.808;2023-02-27T13:04:26;-1.40;99.90
6954;DHT22;3516;47.980;8.808;2023-02-27T13:06:59;-1.40;99.90
6954;DHT22;3516;47.980;8.808;2023-02-27T13:09:33;-1.40;99.90
6954;DHT22;3516;47.980;8.808;2023-02-27T13:12:13;-1.30;99.90
6954;DHT22;3516;47.980;8.808;2023-02-27T13:14:46;-1.30;99.90
6954;DHT22;3516;47.980;8.808;2023-02-27T13:17:22;-1.30;99.90
6954;DHT22;3516;47.980;8.808;2023-02-27T13:19:51;-1.30;99.90
6954;DHT22;3516;47.980;8.808;2023-02-27T13:22:28;-1.40;99.90
6954;DHT22;3516;47.980;8.808;2023-02-27T13:25:01;-1.40;99.90
6954;DHT22;3516;47.980;8.808;2023-02-27T13:27:34;-1.40;99.90
6954;DHT22;3516;47.980;8.808;2023-02-27T13:30:11;-1.40;99.90
6954;DHT22;3516;47.980;8.808;2023-02-27T13:32:43;-1.40;99.90
6954;DHT22;3516;47.980;8.808;2023-02-27T13:35:27;-1.40;99.90
6954;DHT22;3516;47.980;8.808;2023-02-27T13:37:57;-1.50;99.90
6954;DHT22;3516;47.980;8.808;2023-02-27T13:40:33;-1.50;99.90
6954;DHT22;3516;47.980;8.808;2023-02-27T13:43:04;-1.50;99.90
6954;DHT22;3516;47.980;8.808;2023-02-27T13:45:54;-1.50;99.90
6954;DHT22;3516;47.980;8.808;2023-02-27T13:48:42;-1.50;99.90
6954;DHT22;3516;47.980;8.808;2023-02-27T13:51:43;-1.40;99.90
6954;DHT22;3516;47.980;8.808;2023-02-27T13:54:23;-1.40;99.90
6954;DHT22;3516;47.980;8.808;2023-02-27T13:57:05;-1.30;99.90
6954;DHT22;3516;47.980;8.808;2023-02-27T13:59:36;-1.30;99.90
6954;DHT22;3516;47.980;8.808;2023-02-27T14:02:27;-1.20;99.90
6954;DHT22;3516;47.980;8.808;2023-02-27T14:04:57;-1.10;99.90
6954;DHT22;3516;47.980;8.808;2023-02-27T14:07:27;-1.00;99.90
6954;DHT22;3516;47.980;8.808;2023-02-27T14:10:01;-1.00;99.90
6954;DHT22;3516;47.980;8.808;2023-02-27T14:12:30;-0.90;99.90
6954;DHT22;3516;47.980;8.808;2023-02-27T14:15:00;-0.90;99.90
6954;DHT22;3516;47.980;8.808;2023-02-27T14:17:39;-0.80;99.90
6954;DHT22;3516;47.980;8.808;2023-02-27T14:20:11;-0.80;99.90
6954;DHT22;3516;47.980;8.808;2023-02-27T14:25:40;-0.60;99.90
6954;DHT22;3516;47.980;8.808;2023-02-27T14:28:19;-0.60;99.90
6954;DHT22;3516;47.980;8.808;2023-02-27T14:30:56;-0.60;99.90
6954;DHT22;3516;47.980;8.808;2023-02-27T14:33:26;-0.60;99.90
6954;DHT22;3516;47.980;8.808;2023-02-27T14:35:59;-0.70;99.90
6954;DHT22;3516;47.980;8.808;2023-02-27T14:38:26;-0.70;99.90
6954;DHT22;3516;47.980;8.808;2023-02-27T14:41:07;-0.60;99.90
6954;DHT22;3516;47.980;8.808;2023-02-27T14:43:39;-0.60;99.90
6954;DHT22;3516;47.980;8.808;2023-02-27T14:46:13;-0.60;99.90
6954;DHT22;3516;47.980;8.808;2023-02-27T14:48:41;-0.60;99.90
6954;DHT22;3516;47.980;8.808;2023-02-27T14:51:09;-0.70;99.90
6954;DHT22;3516;47.980;8.808;2023-02-27T14:53:38;-0.60;99.90
6954;DHT22;3516;47.980;8.808;2023-02-27T14:56:17;-0.60;99.90
6954;DHT22;3516;47.980;8.808;2023-02-27T14:58:46;-0.60;99.90
6954;DHT22;3516;47.980;8.808;2023-02-27T15:01:17;-0.70;99.90
6954;DHT22;3516;47.980;8.808;2023-02-27T15:03:47;-0.70;98.50
6954;DHT22;3516;47.980;8.808;2023-02-27T15:06:17;-0.90;97.70
6954;DHT22;3516;47.980;8.808;2023-02-27T15:08:47;-1.00;97.90
6954;DHT22;3516;47.980;8.808;2023-02-27T15:11:16;-1.00;99.50
6954;DHT22;3516;47.980;8.808;2023-02-27T15:13:44;-0.90;97.30
6954;DHT22;3516;47.980;8.808;2023-02-27T15:16:31;-0.90;96.00
6954;DHT22;3516;47.980;8.808;2023-02-27T15:19:03;-0.90;96.10
6954;DHT22;3516;47.980;8.808;2023-02-27T15:21:32;-0.90;95.30
6954;DHT22;3516;47.980;8.808;2023-02-27T15:24:05;-0.90;94.90
6954;DHT22;3516;47.980;8.808;2023-02-27T15:26:36;-0.90;94.60
6954;DHT22;3516;47.980;8.808;2023-02-27T15:29:05;-0.90;95.30
6954;DHT22;3516;47.980;8.808;2023-02-27T15:31:35;-0.90;96.70
6954;DHT22;3516;47.980;8.808;2023-02-27T15:34:03;-0.80;97.00
6954;DHT22;3516;47.980;8.808;2023-02-27T15:36:32;-0.90;97.30
6954;DHT22;3516;47.980;8.808;2023-02-27T15:39:12;-0.90;98.30
6954;DHT22;3516;47.980;8.808;2023-02-27T15:41:42;-0.90;97.70
6954;DHT22;3516;47.980;8.808;2023-02-27T15:44:10;-0.90;99.90
6954;DHT22;3516;47.980;8.808;2023-02-27T15:46:39;-0.90;99.90
6954;DHT22;3516;47.980;8.808;2023-02-27T15:49:08;-0.90;99.90
6954;DHT22;3516;47.980;8.808;2023-02-27T15:51:36;-1.00;99.90
6954;DHT22;3516;47.980;8.808;2023-02-27T15:54:03;-1.00;99.90
6954;DHT22;3516;47.980;8.808;2023-02-27T15:56:32;-1.00;99.90
6954;DHT22;3516;47.980;8.808;2023-02-27T15:59:00;-1.00;99.90
6954;DHT22;3516;47.980;8.808;2023-02-27T16:01:29;-1.10;99.90
6954;DHT22;3516;47.980;8.808;2023-02-27T16:03:59;-1.10;99.90
6954;DHT22;3516;47.980;8.808;2023-02-27T16:06:29;-1.10;99.90
6954;DHT22;3516;47.980;8.808;2023-02-27T16:08:59;-1.10;99.90
6954;DHT22;3516;47.980;8.808;2023-02-27T16:11:28;-1.20;99.90
6954;DHT22;3516;47.980;8.808;2023-02-27T16:13:55;-1.10;99.90
6954;DHT22;3516;47.980;8.808;2023-02-27T16:16:29;-1.10;99.90
6954;DHT22;3516;47.980;8.808;2023-02-27T16:19:14;-1.20;99.90
6954;DHT22;3516;47.980;8.808;2023-02-27T16:22:03;-1.20;99.90
6954;DHT22;3516;47.980;8.808;2023-02-27T16:24:31;-1.20;99.90
6954;DHT22;3516;47.980;8.808;2023-02-27T16:26:58;-1.30;99.90
6954;DHT22;3516;47.980;8.808;2023-02-27T16:29:31;-1.20;99.90
6954;DHT22;3516;47.980;8.808;2023-02-27T16:31:59;-1.30;99.90
6954;DHT22;3516;47.980;8.808;2023-02-27T16:34:29;-1.30;99.90
6954;DHT22;3516;47.980;8.808;2023-02-27T16:37:00;-1.30;99.90
6954;DHT22;3516;47.980;8.808;2023-02-27T16:39:29;-1.30;99.90
6954;DHT22;3516;47.980;8.808;2023-02-27T16:41:57;-1.30;99.90
6954;DHT22;3516;47.980;8.808;2023-02-27T16:44:25;-1.30;99.90
6954;DHT22;3516;47.980;8.808;2023-02-27T16:46:54;-1.40;98.50
6954;DHT22;3516;47.980;8.808;2023-02-27T16:49:24;-1.40;99.90
6954;DHT22;3516;47.980;8.808;2023-02-27T16:51:54;-1.40;99.90
6954;DHT22;3516;47.980;8.808;2023-02-27T16:54:22;-1.40;99.90
6954;DHT22;3516;47.980;8.808;2023-02-27T16:56:50;-1.40;99.90
6954;DHT22;3516;47.980;8.808;2023-02-27T16:59:26;-1.50;99.90
6954;DHT22;3516;47.980;8.808;2023-02-27T17:01:53;-1.50;99.90
6954;DHT22;3516;47.980;8.808;2023-02-27T17:04:21;-1.50;99.90
6954;DHT22;3516;47.980;8.808;2023-02-27T17:06:47;-1.50;99.90
6954;DHT22;3516;47.980;8.808;2023-02-27T17:09:15;-1.50;99.90
6954;DHT22;3516;47.980;8.808;2023-02-27T17:11:42;-1.60;99.90
6954;DHT22;3516;47.980;8.808;2023-02-27T17:14:09;-1.60;99.90
6954;DHT22;3516;47.980;8.808;2023-02-27T17:16:36;-1.60;99.90
6954;DHT22;3516;47.980;8.808;2023-02-27T17:19:03;-1.60;99.90
6954;DHT22;3516;47.980;8.808;2023-02-27T17:21:29;-1.70;99.90
6954;DHT22;3516;47.980;8.808;2023-02-27T17:23:56;-1.70;99.90
6954;DHT22;3516;47.980;8.808;2023-02-27T17:26:24;-1.70;99.90
6954;DHT22;3516;47.980;8.808;2023-02-27T17:28:51;-1.70;99.90
6954;DHT22;3516;47.980;8.808;2023-02-27T17:31:18;-1.70;99.90
6954;DHT22;3516;47.980;8.808;2023-02-27T17:33:47;-1.70;99.90
6954;DHT22;3516;47.980;8.808;2023-02-27T17:36:14;-1.70;99.90
6954;DHT22;3516;47.980;8.808;2023-02-27T17:38:41;-1.70;99.90
6954;DHT22;3516;47.980;8.808;2023-02-27T17:41:10;-1.70;99.90
6954;DHT22;3516;47.980;8.808;2023-02-27T17:43:38;-1.70;99.90
6954;DHT22;3516;47.980;8.808;2023-02-27T17:46:06;-1.70;99.90
6954;DHT22;3516;47.980;8.808;2023-02-27T17:48:33;-1.80;99.90
6954;DHT22;3516;47.980;8.808;2023-02-27T17:53:29;-1.80;99.90
6954;DHT22;3516;47.980;8.808;2023-02-27T17:55:56;-1.80;99.90
6954;DHT22;3516;47.980;8.808;2023-02-27T17:58:22;-1.80;99.90
6954;DHT22;3516;47.980;8.808;2023-02-27T18:00:51;-1.80;99.90
6954;DHT22;3516;47.980;8.808;2023-02-27T18:03:17;-1.80;99.90
6954;DHT22;3516;47.980;8.808;2023-02-27T18:05:49;-1.80;99.90
6954;DHT22;3516;47.980;8.808;2023-02-27T18:08:16;-1.80;99.90
6954;DHT22;3516;47.980;8.808;2023-02-27T18:10:45;-1.80;99.90
6954;DHT22;3516;47.980;8.808;2023-02-27T18:13:13;-1.90;99.90
6954;DHT22;3516;47.980;8.808;2023-02-27T18:15:40;-1.80;99.90
6954;DHT22;3516;47.980;8.808;2023-02-27T18:18:08;-1.90;99.90
6954;DHT22;3516;47.980;8.808;2023-02-27T18:20:35;-1.90;99.90
6954;DHT22;3516;47.980;8.808;2023-02-27T18:23:03;-1.90;99.90
6954;DHT22;3516;47.980;8.808;2023-02-27T18:25:30;-1.90;99.90
6954;DHT22;3516;47.980;8.808;2023-02-27T18:27:56;-1.90;99.90
6954;DHT22;3516;47.980;8.808;2023-02-27T18:30:23;-2.00;99.90
6954;DHT22;3516;47.980;8.808;2023-02-27T18:32:50;-1.90;99.90
6954;DHT22;3516;47.980;8.808;2023-02-27T18:35:22;-1.90;99.90
6954;DHT22;3516;47.980;8.808;2023-02-27T18:37:49;-2.00;99.90
6954;DHT22;3516;47.980;8.808;2023-02-27T18:40:16;-2.00;99.90
6954;DHT22;3516;47.980;8.808;2023-02-27T18:42:43;-2.10;99.90
6954;DHT22;3516;47.980;8.808;2023-02-27T18:45:12;-2.20;99.90
6954;DHT22;3516;47.980;8.808;2023-02-27T18:47:38;-2.20;99.90
6954;DHT22;3516;47.980;8.808;2023-02-27T18:50:05;-2.30;99.90
6954;DHT22;3516;47.980;8.808;2023-02-27T18:52:33;-2.30;99.90
6954;DHT22;3516;47.980;8.808;2023-02-27T18:55:00;-2.30;99.90
6954;DHT22;3516;47.980;8.808;2023-02-27T18:57:27;-2.30;99.90
6954;DHT22;3516;47.980;8.808;2023-02-27T18:59:53;-2.40;99.90
6954;DHT22;3516;47.980;8.808;2023-02-27T19:02:20;-2.40;99.90
6954;DHT22;3516;47.980;8.808;2023-02-27T19:04:48;-2.40;99.90
6954;DHT22;3516;47.980;8.808;2023-02-27T19:07:16;-2.40;99.90
6954;DHT22;3516;47.980;8.808;2023-02-27T19:09:45;-2.50;99.90
6954;DHT22;3516;47.980;8.808;2023-02-27T19:12:12;-2.40;99.90
6954;DHT22;3516;47.980;8.808;2023-02-27T19:14:39;-2.40;99.90
6954;DHT22;3516;47.980;8.808;2023-02-27T19:17:06;-2.40;99.90
6954;DHT22;3516;47.980;8.808;2023-02-27T19:19:33;-2.40;99.90
6954;DHT22;3516;47.980;8.808;2023-02-27T19:22:00;-2.40;99.90
6954;DHT22;3516;47.980;8.808;2023-02-27T19:24:26;-2.40;99.90
6954;DHT22;3516;47.980;8.808;2023-02-27T19:26:55;-2.40;99.90
6954;DHT22;3516;47.980;8.808;2023-02-27T19:29:22;-2.50;99.90
6954;DHT22;3516;47.980;8.808;2023-02-27T19:31:48;-2.40;99.90
6954;DHT22;3516;47.980;8.808;2023-02-27T19:34:15;-2.30;99.90
6954;DHT22;3516;47.980;8.808;2023-02-27T19:36:42;-2.40;99.90
6954;DHT22;3516;47.980;8.808;2023-02-27T19:39:09;-2.40;99.90
6954;DHT22;3516;47.980;8.808;2023-02-27T19:41:36;-2.40;99.90
6954;DHT22;3516;47.980;8.808;2023-02-27T19:44:04;-2.40;99.90
6954;DHT22;3516;47.980;8.808;2023-02-27T19:46:33;-2.40;99.90
6954;DHT22;3516;47.980;8.808;2023-02-27T19:49:01;-2.40;99.90
6954;DHT22;3516;47.980;8.808;2023-02-27T19:51:28;-2.50;99.90
6954;DHT22;3516;47.980;8.808;2023-02-27T19:53:56;-2.50;99.90
6954;DHT22;3516;47.980;8.808;2023-02-27T19:56:25;-2.60;99.90
6954;DHT22;3516;47.980;8.808;2023-02-27T19:58:52;-2.70;99.90
6954;DHT22;3516;47.980;8.808;2023-02-27T20:01:21;-2.70;99.90
6954;DHT22;3516;47.980;8.808;2023-02-27T20:03:48;-2.70;99.90
6954;DHT22;3516;47.980;8.808;2023-02-27T20:06:16;-2.70;99.90
6954;DHT22;3516;47.980;8.808;2023-02-27T20:08:44;-2.70;99.90
6954;DHT22;3516;47.980;8.808;2023-02-27T20:11:11;-2.70;99.90
6954;DHT22;3516;47.980;8.808;2023-02-27T20:13:41;-2.80;99.90
6954;DHT22;3516;47.980;8.808;2023-02-27T20:16:09;-2.70;99.90
6954;DHT22;3516;47.980;8.808;2023-02-27T20:18:38;-2.80;99.90
6954;DHT22;3516;47.980;8.808;2023-02-27T20:21:08;-2.80;99.90
6954;DHT22;3516;47.980;8.808;2023-02-27T20:23:37;-2.80;99.90
6954;DHT22;3516;47.980;8.808;2023-02-27T20:26:13;-2.80;99.90
6954;DHT22;3516;47.980;8.808;2023-02-27T20:28:40;-2.80;99.90
6954;DHT22;3516;47.980;8.808;2023-02-27T20:31:07;-2.80;99.90
6954;DHT22;3516;47.980;8.808;2023-02-27T20:33:35;-2.80;99.90
6954;DHT22;3516;47.980;8.808;2023-02-27T20:36:04;-2.80;99.90
6954;DHT22;3516;47.980;8.808;2023-02-27T20:38:31;-2.80;99.90
6954;DHT22;3516;47.980;8.808;2023-02-27T20:40:58;-2.80;99.90
6954;DHT22;3516;47.980;8.808;2023-02-27T20:43:27;-2.90;99.90
6954;DHT22;3516;47.980;8.808;2023-02-27T20:45:54;-2.80;99.90
6954;DHT22;3516;47.980;8.808;2023-02-27T20:48:21;-2.90;99.90
6954;DHT22;3516;47.980;8.808;2023-02-27T20:50:47;-2.90;99.90
6954;DHT22;3516;47.980;8.808;2023-02-27T20:53:15;-2.90;99.90
6954;DHT22;3516;47.980;8.808;2023-02-27T20:55:46;-2.90;99.90
6954;DHT22;3516;47.980;8.808;2023-02-27T20:58:13;-2.90;99.90
6954;DHT22;3516;47.980;8.808;2023-02-27T21:00:40;-2.90;99.90
6954;DHT22;3516;47.980;8.808;2023-02-27T21:03:06;-3.00;99.90
6954;DHT22;3516;47.980;8.808;2023-02-27T21:05:33;-3.00;99.90
6954;DHT22;3516;47.980;8.808;2023-02-27T21:08:00;-3.00;99.90
6954;DHT22;3516;47.980;8.808;2023-02-27T21:10:28;-2.90;99.90
6954;DHT22;3516;47.980;8.808;2023-02-27T21:12:55;-3.00;99.90
